sensor_id;sensor_type;location;lat;lon;timestamp;P1;durP1;ratioP1;P2;durP2;ratioP2
4672;SDS011;61885;53.560;9.940;2022-12-29T00:01:26;2.60;;;2.40;;
4672;SDS011;61885;53.560;9.940;2022-12-29T00:03:57;2.97;;;2.77;;
4672;SDS011;61885;53.560;9.940;2022-12-29T00:06:27;2.70;;;2.50;;
4672;SDS011;61885;53.560;9.940;2022-12-29T00:08:57;2.50;;;2.30;;
4672;SDS011;61885;53.560;9.940;2022-12-29T00:11:27;3.10;;;2.90;;
4672;SDS011;61885;53.560;9.940;2022-12-29T00:14:00;3.17;;;2.90;;
4672;SDS011;61885;53.560;9.940;2022-12-29T00:16:44;3.90;;;3.50;;
4672;SDS011;61885;53.560;9.940;2022-12-29T00:19:17;3.30;;;3.00;;
4672;SDS011;61885;53.560;9.940;2022-12-29T00:22:00;3.00;;;2.70;;
4672;SDS011;61885;53.560;9.940;2022-12-29T00:24:43;6.30;;;3.80;;
4672;SDS011;61885;53.560;9.940;2022-12-29T00:27:30;3.13;;;2.93;;
4672;SDS011;61885;53.560;9.940;2022-12-29T00:30:16;3.03;;;2.83;;
4672;SDS011;61885;53.560;9.940;2022-12-29T00:33:01;4.60;;;3.07;;
4672;SDS011;61885;53.560;9.940;2022-12-29T00:35:51;3.50;;;2.40;;
4672;SDS011;61885;53.560;9.940;2022-12-29T00:38:24;3.90;;;3.53;;
4672;SDS011;61885;53.560;9.940;2022-12-29T00:41:11;3.20;;;2.50;;
4672;SDS011;61885;53.560;9.940;2022-12-29T00:43:53;2.97;;;2.67;;
4672;SDS011;61885;53.560;9.940;2022-12-29T00:46:39;2.80;;;2.70;;
4672;SDS011;61885;53.560;9.940;2022-12-29T00:49:13;6.20;;;3.87;;
4672;SDS011;61885;53.560;9.940;2022-12-29T00:51:55;8.83;;;3.00;;
4672;SDS011;61885;53.560;9.940;2022-12-29T00:54:26;4.37;;;3.27;;
4672;SDS011;61885;53.560;9.940;2022-12-29T00:57:00;4.20;;;3.80;;
4672;SDS011;61885;53.560;9.940;2022-12-29T00:59:30;3.13;;;2.83;;
4672;SDS011;61885;53.560;9.940;2022-12-29T01:02:02;3.03;;;2.60;;
4672;SDS011;61885;53.560;9.940;2022-12-29T01:04:33;3.20;;;2.90;;
4672;SDS011;61885;53.560;9.940;2022-12-29T01:07:02;2.73;;;2.53;;
4672;SDS011;61885;53.560;9.940;2022-12-29T01:09:33;3.00;;;2.70;;
4672;SDS011;61885;53.560;9.940;2022-12-29T01:12:15;2.43;;;2.20;;
4672;SDS011;61885;53.560;9.940;2022-12-29T01:15:06;4.63;;;2.40;;
4672;SDS011;61885;53.560;9.940;2022-12-29T01:17:40;3.97;;;2.63;;
4672;SDS011;61885;53.560;9.940;2022-12-29T01:20:11;4.33;;;3.90;;
4672;SDS011;61885;53.560;9.940;2022-12-29T01:22:43;4.77;;;3.97;;
4672;SDS011;61885;53.560;9.940;2022-12-29T01:25:15;3.43;;;3.13;;
4672;SDS011;61885;53.560;9.940;2022-12-29T01:27:45;8.13;;;3.17;;
4672;SDS011;61885;53.560;9.940;2022-12-29T01:30:17;4.03;;;3.20;;
4672;SDS011;61885;53.560;9.940;2022-12-29T01:32:49;2.80;;;2.60;;
4672;SDS011;61885;53.560;9.940;2022-12-29T01:35:20;3.10;;;2.80;;
4672;SDS011;61885;53.560;9.940;2022-12-29T01:37:52;2.97;;;2.77;;
4672;SDS011;61885;53.560;9.940;2022-12-29T01:40:23;2.60;;;2.40;;
4672;SDS011;61885;53.560;9.940;2022-12-29T01:42:53;2.50;;;2.30;;
4672;SDS011;61885;53.560;9.940;2022-12-29T01:45:24;2.60;;;2.33;;
4672;SDS011;61885;53.560;9.940;2022-12-29T01:47:57;2.63;;;2.40;;
4672;SDS011;61885;53.560;9.940;2022-12-29T01:50:36;3.10;;;2.77;;
4672;SDS011;61885;53.560;9.940;2022-12-29T01:53:13;2.77;;;2.47;;
4672;SDS011;61885;53.560;9.940;2022-12-29T01:55:50;4.10;;;2.93;;
4672;SDS011;61885;53.560;9.940;2022-12-29T01:58:24;13.00;;;2.77;;
4672;SDS011;61885;53.560;9.940;2022-12-29T02:01:01;3.03;;;2.83;;
4672;SDS011;61885;53.560;9.940;2022-12-29T02:03:34;3.63;;;2.83;;
4672;SDS011;61885;53.560;9.940;2022-12-29T02:06:07;2.50;;;2.37;;
4672;SDS011;61885;53.560;9.940;2022-12-29T02:08:40;3.40;;;3.10;;
4672;SDS011;61885;53.560;9.940;2022-12-29T02:11:10;3.87;;;2.87;;
4672;SDS011;61885;53.560;9.940;2022-12-29T02:13:41;11.00;;;3.60;;
4672;SDS011;61885;53.560;9.940;2022-12-29T02:16:18;3.57;;;2.70;;
4672;SDS011;61885;53.560;9.940;2022-12-29T02:19:06;5.90;;;2.70;;
4672;SDS011;61885;53.560;9.940;2022-12-29T02:22:12;3.07;;;2.80;;
4672;SDS011;61885;53.560;9.940;2022-12-29T02:28:11;2.93;;;2.73;;
4672;SDS011;61885;53.560;9.940;2022-12-29T02:31:10;3.40;;;3.10;;
4672;SDS011;61885;53.560;9.940;2022-12-29T02:33:50;3.93;;;2.50;;
4672;SDS011;61885;53.560;9.940;2022-12-29T02:36:29;2.77;;;2.40;;
4672;SDS011;61885;53.560;9.940;2022-12-29T02:39:13;3.07;;;2.77;;
4672;SDS011;61885;53.560;9.940;2022-12-29T02:41:54;3.80;;;2.70;;
4672;SDS011;61885;53.560;9.940;2022-12-29T02:44:32;2.93;;;2.73;;
4672;SDS011;61885;53.560;9.940;2022-12-29T02:47:11;2.70;;;2.50;;
4672;SDS011;61885;53.560;9.940;2022-12-29T02:49:52;3.47;;;2.97;;
4672;SDS011;61885;53.560;9.940;2022-12-29T02:52:30;2.50;;;2.30;;
4672;SDS011;61885;53.560;9.940;2022-12-29T02:55:05;11.47;;;2.80;;
4672;SDS011;61885;53.560;9.940;2022-12-29T02:57:34;2.50;;;2.30;;
4672;SDS011;61885;53.560;9.940;2022-12-29T03:00:05;2.30;;;2.10;;
4672;SDS011;61885;53.560;9.940;2022-12-29T03:02:52;4.00;;;2.33;;
4672;SDS011;61885;53.560;9.940;2022-12-29T03:05:51;2.63;;;2.43;;
4672;SDS011;61885;53.560;9.940;2022-12-29T03:08:31;2.30;;;2.10;;
4672;SDS011;61885;53.560;9.940;2022-12-29T03:11:08;2.67;;;2.47;;
4672;SDS011;61885;53.560;9.940;2022-12-29T03:14:00;2.43;;;2.23;;
4672;SDS011;61885;53.560;9.940;2022-12-29T03:16:48;6.47;;;2.80;;
4672;SDS011;61885;53.560;9.940;2022-12-29T03:19:28;2.47;;;2.27;;
4672;SDS011;61885;53.560;9.940;2022-12-29T03:22:01;3.20;;;2.60;;
4672;SDS011;61885;53.560;9.940;2022-12-29T03:24:47;3.17;;;2.50;;
4672;SDS011;61885;53.560;9.940;2022-12-29T03:27:21;3.50;;;2.30;;
4672;SDS011;61885;53.560;9.940;2022-12-29T03:29:55;2.80;;;2.20;;
4672;SDS011;61885;53.560;9.940;2022-12-29T03:32:31;2.80;;;2.50;;
4672;SDS011;61885;53.560;9.940;2022-12-29T03:35:07;2.00;;;1.90;;
4672;SDS011;61885;53.560;9.940;2022-12-29T03:37:41;2.20;;;2.10;;
4672;SDS011;61885;53.560;9.940;2022-12-29T03:40:15;3.83;;;2.07;;
4672;SDS011;61885;53.560;9.940;2022-12-29T03:42:45;2.53;;;1.83;;
4672;SDS011;61885;53.560;9.940;2022-12-29T03:45:17;2.30;;;2.03;;
4672;SDS011;61885;53.560;9.940;2022-12-29T03:47:48;2.10;;;2.00;;
4672;SDS011;61885;53.560;9.940;2022-12-29T03:50:20;2.60;;;2.40;;
4672;SDS011;61885;53.560;9.940;2022-12-29T03:52:51;1.80;;;1.70;;
4672;SDS011;61885;53.560;9.940;2022-12-29T03:55:20;2.43;;;2.33;;
4672;SDS011;61885;53.560;9.940;2022-12-29T03:57:50;2.07;;;1.87;;
4672;SDS011;61885;53.560;9.940;2022-12-29T04:00:20;5.03;;;2.57;;
4672;SDS011;61885;53.560;9.940;2022-12-29T04:02:52;2.47;;;2.27;;
4672;SDS011;61885;53.560;9.940;2022-12-29T04:05:24;2.87;;;2.03;;
4672;SDS011;61885;53.560;9.940;2022-12-29T04:07:54;1.90;;;1.80;;
4672;SDS011;61885;53.560;9.940;2022-12-29T04:10:24;1.70;;;1.60;;
4672;SDS011;61885;53.560;9.940;2022-12-29T04:12:53;1.60;;;1.50;;
4672;SDS011;61885;53.560;9.940;2022-12-29T04:15:23;1.57;;;1.47;;
4672;SDS011;61885;53.560;9.940;2022-12-29T04:17:57;2.00;;;1.90;;
4672;SDS011;61885;53.560;9.940;2022-12-29T04:20:31;1.90;;;1.80;;
4672;SDS011;61885;53.560;9.940;2022-12-29T04:23:32;1.53;;;1.43;;
4672;SDS011;61885;53.560;9.940;2022-12-29T04:26:06;3.20;;;1.30;;
4672;SDS011;61885;53.560;9.940;2022-12-29T04:28:38;1.47;;;1.37;;
4672;SDS011;61885;53.560;9.940;2022-12-29T04:31:10;1.67;;;1.57;;
4672;SDS011;61885;53.560;9.940;2022-12-29T04:33:42;2.07;;;1.60;;
4672;SDS011;61885;53.560;9.940;2022-12-29T04:36:15;1.30;;;1.20;;
4672;SDS011;61885;53.560;9.940;2022-12-29T04:38:46;1.70;;;1.60;;
4672;SDS011;61885;53.560;9.940;2022-12-29T04:41:16;1.50;;;1.40;;
4672;SDS011;61885;53.560;9.940;2022-12-29T04:43:46;1.40;;;1.30;;
4672;SDS011;61885;53.560;9.940;2022-12-29T04:46:18;6.77;;;1.47;;
4672;SDS011;61885;53.560;9.940;2022-12-29T04:48:59;1.30;;;1.20;;
4672;SDS011;61885;53.560;9.940;2022-12-29T04:51:37;1.23;;;1.13;;
4672;SDS011;61885;53.560;9.940;2022-12-29T04:54:06;1.53;;;1.10;;
4672;SDS011;61885;53.560;9.940;2022-12-29T04:56:36;1.40;;;1.30;;
4672;SDS011;61885;53.560;9.940;2022-12-29T04:59:08;2.00;;;1.20;;
4672;SDS011;61885;53.560;9.940;2022-12-29T05:01:40;1.30;;;1.20;;
4672;SDS011;61885;53.560;9.940;2022-12-29T05:04:11;1.00;;;0.90;;
4672;SDS011;61885;53.560;9.940;2022-12-29T05:06:48;1.10;;;1.00;;
4672;SDS011;61885;53.560;9.940;2022-12-29T05:09:19;1.17;;;1.07;;
4672;SDS011;61885;53.560;9.940;2022-12-29T05:11:49;1.20;;;1.10;;
4672;SDS011;61885;53.560;9.940;2022-12-29T05:14:20;1.17;;;1.07;;
4672;SDS011;61885;53.560;9.940;2022-12-29T05:16:49;1.50;;;1.00;;
4672;SDS011;61885;53.560;9.940;2022-12-29T05:19:29;1.20;;;1.10;;
4672;SDS011;61885;53.560;9.940;2022-12-29T05:22:04;1.40;;;1.30;;
4672;SDS011;61885;53.560;9.940;2022-12-29T05:24:35;1.60;;;1.50;;
4672;SDS011;61885;53.560;9.940;2022-12-29T05:27:04;1.40;;;1.30;;
4672;SDS011;61885;53.560;9.940;2022-12-29T05:29:34;1.97;;;1.53;;
4672;SDS011;61885;53.560;9.940;2022-12-29T05:32:04;1.53;;;1.43;;
4672;SDS011;61885;53.560;9.940;2022-12-29T05:34:34;2.07;;;1.97;;
4672;SDS011;61885;53.560;9.940;2022-12-29T05:37:07;1.93;;;1.83;;
4672;SDS011;61885;53.560;9.940;2022-12-29T05:39:36;2.10;;;1.90;;
4672;SDS011;61885;53.560;9.940;2022-12-29T05:42:06;2.10;;;2.00;;
4672;SDS011;61885;53.560;9.940;2022-12-29T05:44:36;4.43;;;2.70;;
4672;SDS011;61885;53.560;9.940;2022-12-29T05:47:06;2.40;;;2.20;;
4672;SDS011;61885;53.560;9.940;2022-12-29T05:49:50;1.67;;;1.57;;
4672;SDS011;61885;53.560;9.940;2022-12-29T05:52:23;5.47;;;1.60;;
4672;SDS011;61885;53.560;9.940;2022-12-29T05:54:55;1.73;;;1.63;;
4672;SDS011;61885;53.560;9.940;2022-12-29T05:57:25;3.07;;;2.80;;
4672;SDS011;61885;53.560;9.940;2022-12-29T05:59:55;1.40;;;1.30;;
4672;SDS011;61885;53.560;9.940;2022-12-29T06:02:41;2.20;;;1.20;;
4672;SDS011;61885;53.560;9.940;2022-12-29T06:05:11;1.43;;;1.33;;
4672;SDS011;61885;53.560;9.940;2022-12-29T06:07:46;1.50;;;1.40;;
4672;SDS011;61885;53.560;9.940;2022-12-29T06:10:16;1.97;;;1.43;;
4672;SDS011;61885;53.560;9.940;2022-12-29T06:12:46;1.27;;;1.17;;
4672;SDS011;61885;53.560;9.940;2022-12-29T06:15:18;1.40;;;1.30;;
4672;SDS011;61885;53.560;9.940;2022-12-29T06:17:48;1.47;;;1.37;;
4672;SDS011;61885;53.560;9.940;2022-12-29T06:20:19;1.77;;;1.67;;
4672;SDS011;61885;53.560;9.940;2022-12-29T06:22:51;1.37;;;1.27;;
4672;SDS011;61885;53.560;9.940;2022-12-29T06:25:21;1.10;;;0.90;;
4672;SDS011;61885;53.560;9.940;2022-12-29T06:27:51;1.33;;;1.23;;
4672;SDS011;61885;53.560;9.940;2022-12-29T06:30:22;3.57;;;1.60;;
4672;SDS011;61885;53.560;9.940;2022-12-29T06:32:51;1.53;;;1.43;;
4672;SDS011;61885;53.560;9.940;2022-12-29T06:35:30;1.27;;;1.17;;
4672;SDS011;61885;53.560;9.940;2022-12-29T06:38:06;6.23;;;1.60;;
4672;SDS011;61885;53.560;9.940;2022-12-29T06:40:35;5.07;;;1.70;;
4672;SDS011;61885;53.560;9.940;2022-12-29T06:43:07;2.33;;;1.40;;
4672;SDS011;61885;53.560;9.940;2022-12-29T06:45:37;2.27;;;2.07;;
4672;SDS011;61885;53.560;9.940;2022-12-29T06:48:10;1.40;;;1.30;;
4672;SDS011;61885;53.560;9.940;2022-12-29T06:50:39;1.70;;;1.60;;
4672;SDS011;61885;53.560;9.940;2022-12-29T06:53:12;2.13;;;1.40;;
4672;SDS011;61885;53.560;9.940;2022-12-29T06:55:42;1.07;;;0.97;;
4672;SDS011;61885;53.560;9.940;2022-12-29T06:58:14;1.37;;;1.27;;
4672;SDS011;61885;53.560;9.940;2022-12-29T07:00:44;3.27;;;1.43;;
4672;SDS011;61885;53.560;9.940;2022-12-29T07:03:14;2.10;;;1.70;;
4672;SDS011;61885;53.560;9.940;2022-12-29T07:05:45;1.67;;;1.57;;
4672;SDS011;61885;53.560;9.940;2022-12-29T07:08:19;1.60;;;1.30;;
4672;SDS011;61885;53.560;9.940;2022-12-29T07:10:50;0.93;;;0.83;;
4672;SDS011;61885;53.560;9.940;2022-12-29T07:13:21;1.70;;;1.40;;
4672;SDS011;61885;53.560;9.940;2022-12-29T07:15:50;3.73;;;1.83;;
4672;SDS011;61885;53.560;9.940;2022-12-29T07:18:20;4.67;;;1.07;;
4672;SDS011;61885;53.560;9.940;2022-12-29T07:20:50;2.10;;;2.00;;
4672;SDS011;61885;53.560;9.940;2022-12-29T07:23:22;2.90;;;2.43;;
4672;SDS011;61885;53.560;9.940;2022-12-29T07:25:58;1.67;;;1.57;;
4672;SDS011;61885;53.560;9.940;2022-12-29T07:28:29;1.60;;;1.40;;
4672;SDS011;61885;53.560;9.940;2022-12-29T07:30:59;2.00;;;1.80;;
4672;SDS011;61885;53.560;9.940;2022-12-29T07:33:30;2.90;;;2.60;;
4672;SDS011;61885;53.560;9.940;2022-12-29T07:36:02;2.23;;;1.80;;
4672;SDS011;61885;53.560;9.940;2022-12-29T07:38:38;1.70;;;1.60;;
4672;SDS011;61885;53.560;9.940;2022-12-29T07:41:09;1.33;;;1.23;;
4672;SDS011;61885;53.560;9.940;2022-12-29T07:43:39;1.40;;;1.30;;
4672;SDS011;61885;53.560;9.940;2022-12-29T07:46:11;1.53;;;1.43;;
4672;SDS011;61885;53.560;9.940;2022-12-29T07:48:41;1.70;;;1.60;;
4672;SDS011;61885;53.560;9.940;2022-12-29T07:51:10;1.60;;;1.50;;
4672;SDS011;61885;53.560;9.940;2022-12-29T07:53:44;5.40;;;1.60;;
4672;SDS011;61885;53.560;9.940;2022-12-29T07:56:14;1.93;;;1.57;;
4672;SDS011;61885;53.560;9.940;2022-12-29T07:58:44;1.30;;;1.20;;
4672;SDS011;61885;53.560;9.940;2022-12-29T08:01:14;1.53;;;1.27;;
4672;SDS011;61885;53.560;9.940;2022-12-29T08:03:44;1.70;;;1.60;;
4672;SDS011;61885;53.560;9.940;2022-12-29T08:06:13;1.40;;;1.30;;
4672;SDS011;61885;53.560;9.940;2022-12-29T08:08:47;1.60;;;1.20;;
4672;SDS011;61885;53.560;9.940;2022-12-29T08:11:16;1.30;;;1.00;;
4672;SDS011;61885;53.560;9.940;2022-12-29T08:13:48;1.17;;;1.07;;
4672;SDS011;61885;53.560;9.940;2022-12-29T08:16:17;1.83;;;1.60;;
4672;SDS011;61885;53.560;9.940;2022-12-29T08:18:50;1.43;;;1.30;;
4672;SDS011;61885;53.560;9.940;2022-12-29T08:21:19;1.60;;;1.27;;
4672;SDS011;61885;53.560;9.940;2022-12-29T08:23:52;2.63;;;1.50;;
4672;SDS011;61885;53.560;9.940;2022-12-29T08:26:21;1.60;;;1.50;;
4672;SDS011;61885;53.560;9.940;2022-12-29T08:28:51;1.83;;;1.60;;
4672;SDS011;61885;53.560;9.940;2022-12-29T08:31:22;1.83;;;1.73;;
4672;SDS011;61885;53.560;9.940;2022-12-29T08:33:56;2.27;;;1.80;;
4672;SDS011;61885;53.560;9.940;2022-12-29T08:36:26;1.73;;;1.63;;
4672;SDS011;61885;53.560;9.940;2022-12-29T08:38:59;1.20;;;1.10;;
4672;SDS011;61885;53.560;9.940;2022-12-29T08:41:30;1.50;;;1.40;;
4672;SDS011;61885;53.560;9.940;2022-12-29T08:44:00;1.73;;;1.60;;
4672;SDS011;61885;53.560;9.940;2022-12-29T08:46:29;1.20;;;1.10;;
4672;SDS011;61885;53.560;9.940;2022-12-29T08:48:59;2.20;;;1.20;;
4672;SDS011;61885;53.560;9.940;2022-12-29T08:51:33;1.60;;;1.20;;
4672;SDS011;61885;53.560;9.940;2022-12-29T08:54:05;1.40;;;1.17;;
4672;SDS011;61885;53.560;9.940;2022-12-29T08:56:35;1.97;;;1.03;;
4672;SDS011;61885;53.560;9.940;2022-12-29T08:59:06;3.67;;;1.07;;
4672;SDS011;61885;53.560;9.940;2022-12-29T09:01:35;3.27;;;1.00;;
4672;SDS011;61885;53.560;9.940;2022-12-29T09:04:09;1.10;;;0.90;;
4672;SDS011;61885;53.560;9.940;2022-12-29T09:06:39;1.73;;;0.90;;
4672;SDS011;61885;53.560;9.940;2022-12-29T09:09:12;5.70;;;0.90;;
4672;SDS011;61885;53.560;9.940;2022-12-29T09:11:43;1.77;;;1.00;;
4672;SDS011;61885;53.560;9.940;2022-12-29T09:14:13;0.80;;;0.60;;
4672;SDS011;61885;53.560;9.940;2022-12-29T09:16:43;0.90;;;0.70;;
4672;SDS011;61885;53.560;9.940;2022-12-29T09:19:26;1.83;;;1.20;;
4672;SDS011;61885;53.560;9.940;2022-12-29T09:21:59;1.10;;;0.87;;
4672;SDS011;61885;53.560;9.940;2022-12-29T09:24:32;2.33;;;0.60;;
4672;SDS011;61885;53.560;9.940;2022-12-29T09:27:02;1.30;;;0.90;;
4672;SDS011;61885;53.560;9.940;2022-12-29T09:29:33;0.90;;;0.70;;
4672;SDS011;61885;53.560;9.940;2022-12-29T09:32:03;0.93;;;0.60;;
4672;SDS011;61885;53.560;9.940;2022-12-29T09:34:33;2.10;;;0.80;;
4672;SDS011;61885;53.560;9.940;2022-12-29T09:37:03;2.40;;;1.67;;
4672;SDS011;61885;53.560;9.940;2022-12-29T09:39:35;1.53;;;0.60;;
4672;SDS011;61885;53.560;9.940;2022-12-29T09:42:06;1.00;;;0.63;;
4672;SDS011;61885;53.560;9.940;2022-12-29T09:44:48;0.80;;;0.50;;
4672;SDS011;61885;53.560;9.940;2022-12-29T09:47:26;6.67;;;0.90;;
4672;SDS011;61885;53.560;9.940;2022-12-29T09:49:58;3.03;;;0.70;;
4672;SDS011;61885;53.560;9.940;2022-12-29T09:52:31;3.10;;;0.80;;
4672;SDS011;61885;53.560;9.940;2022-12-29T09:55:09;1.00;;;0.70;;
4672;SDS011;61885;53.560;9.940;2022-12-29T09:57:42;4.90;;;0.93;;
4672;SDS011;61885;53.560;9.940;2022-12-29T10:00:19;3.43;;;0.90;;
4672;SDS011;61885;53.560;9.940;2022-12-29T10:02:53;1.00;;;0.60;;
4672;SDS011;61885;53.560;9.940;2022-12-29T10:05:30;3.77;;;1.00;;
4672;SDS011;61885;53.560;9.940;2022-12-29T10:08:15;1.70;;;0.90;;
4672;SDS011;61885;53.560;9.940;2022-12-29T10:11:02;6.50;;;0.67;;
4672;SDS011;61885;53.560;9.940;2022-12-29T10:13:43;2.03;;;0.90;;
4672;SDS011;61885;53.560;9.940;2022-12-29T10:16:29;8.73;;;0.77;;
4672;SDS011;61885;53.560;9.940;2022-12-29T10:19:12;1.10;;;0.60;;
4672;SDS011;61885;53.560;9.940;2022-12-29T10:22:00;4.80;;;1.07;;
4672;SDS011;61885;53.560;9.940;2022-12-29T10:24:38;2.23;;;1.47;;
4672;SDS011;61885;53.560;9.940;2022-12-29T10:27:13;2.53;;;0.70;;
4672;SDS011;61885;53.560;9.940;2022-12-29T10:29:45;4.43;;;0.73;;
4672;SDS011;61885;53.560;9.940;2022-12-29T10:32:22;1.30;;;0.60;;
4672;SDS011;61885;53.560;9.940;2022-12-29T10:34:59;1.20;;;0.70;;
4672;SDS011;61885;53.560;9.940;2022-12-29T10:37:34;4.93;;;0.60;;
4672;SDS011;61885;53.560;9.940;2022-12-29T10:40:15;8.30;;;1.30;;
4672;SDS011;61885;53.560;9.940;2022-12-29T10:42:57;2.73;;;0.90;;
4672;SDS011;61885;53.560;9.940;2022-12-29T10:45:28;3.90;;;1.50;;
4672;SDS011;61885;53.560;9.940;2022-12-29T10:48:00;3.43;;;1.20;;
4672;SDS011;61885;53.560;9.940;2022-12-29T10:50:35;0.87;;;0.70;;
4672;SDS011;61885;53.560;9.940;2022-12-29T10:53:11;1.40;;;0.93;;
4672;SDS011;61885;53.560;9.940;2022-12-29T10:55:47;14.03;;;5.83;;
4672;SDS011;61885;53.560;9.940;2022-12-29T10:58:21;2.90;;;1.20;;
4672;SDS011;61885;53.560;9.940;2022-12-29T11:00:53;6.63;;;1.10;;
4672;SDS011;61885;53.560;9.940;2022-12-29T11:06:18;0.77;;;0.50;;
4672;SDS011;61885;53.560;9.940;2022-12-29T11:08:56;0.90;;;0.50;;
4672;SDS011;61885;53.560;9.940;2022-12-29T11:11:32;2.47;;;0.87;;
4672;SDS011;61885;53.560;9.940;2022-12-29T11:14:11;3.13;;;0.70;;
4672;SDS011;61885;53.560;9.940;2022-12-29T11:16:44;2.80;;;1.10;;
4672;SDS011;61885;53.560;9.940;2022-12-29T11:19:26;4.83;;;1.00;;
4672;SDS011;61885;53.560;9.940;2022-12-29T11:22:07;2.30;;;0.90;;
4672;SDS011;61885;53.560;9.940;2022-12-29T11:24:46;3.90;;;0.90;;
4672;SDS011;61885;53.560;9.940;2022-12-29T11:27:18;1.87;;;0.70;;
4672;SDS011;61885;53.560;9.940;2022-12-29T11:29:53;0.90;;;0.50;;
4672;SDS011;61885;53.560;9.940;2022-12-29T11:32:23;2.60;;;0.80;;
4672;SDS011;61885;53.560;9.940;2022-12-29T11:34:55;1.37;;;0.73;;
4672;SDS011;61885;53.560;9.940;2022-12-29T11:37:30;2.03;;;0.70;;
4672;SDS011;61885;53.560;9.940;2022-12-29T11:40:10;2.20;;;0.70;;
4672;SDS011;61885;53.560;9.940;2022-12-29T11:42:47;1.10;;;0.70;;
4672;SDS011;61885;53.560;9.940;2022-12-29T11:45:25;3.20;;;0.87;;
4672;SDS011;61885;53.560;9.940;2022-12-29T11:47:59;1.87;;;0.90;;
4672;SDS011;61885;53.560;9.940;2022-12-29T11:50:38;1.07;;;0.60;;
4672;SDS011;61885;53.560;9.940;2022-12-29T11:53:14;0.80;;;0.50;;
4672;SDS011;61885;53.560;9.940;2022-12-29T11:55:53;3.77;;;0.73;;
4672;SDS011;61885;53.560;9.940;2022-12-29T11:58:28;5.60;;;0.87;;
4672;SDS011;61885;53.560;9.940;2022-12-29T12:01:06;1.20;;;0.57;;
4672;SDS011;61885;53.560;9.940;2022-12-29T12:03:46;9.30;;;0.90;;
4672;SDS011;61885;53.560;9.940;2022-12-29T12:06:22;2.60;;;1.47;;
4672;SDS011;61885;53.560;9.940;2022-12-29T12:08:59;2.70;;;0.70;;
4672;SDS011;61885;53.560;9.940;2022-12-29T12:11:35;1.30;;;0.70;;
4672;SDS011;61885;53.560;9.940;2022-12-29T12:14:11;0.90;;;0.70;;
4672;SDS011;61885;53.560;9.940;2022-12-29T12:16:50;5.10;;;1.03;;
4672;SDS011;61885;53.560;9.940;2022-12-29T12:19:26;3.07;;;0.80;;
4672;SDS011;61885;53.560;9.940;2022-12-29T12:22:07;0.90;;;0.67;;
4672;SDS011;61885;53.560;9.940;2022-12-29T12:24:44;1.73;;;1.07;;
4672;SDS011;61885;53.560;9.940;2022-12-29T12:27:18;1.50;;;0.80;;
4672;SDS011;61885;53.560;9.940;2022-12-29T12:29:56;2.70;;;0.73;;
4672;SDS011;61885;53.560;9.940;2022-12-29T12:32:38;1.57;;;0.77;;
4672;SDS011;61885;53.560;9.940;2022-12-29T12:35:13;0.80;;;0.50;;
4672;SDS011;61885;53.560;9.940;2022-12-29T12:38:05;1.10;;;1.00;;
4672;SDS011;61885;53.560;9.940;2022-12-29T12:40:47;2.60;;;1.00;;
4672;SDS011;61885;53.560;9.940;2022-12-29T12:46:26;4.00;;;1.53;;
4672;SDS011;61885;53.560;9.940;2022-12-29T12:49:37;2.37;;;0.57;;
4672;SDS011;61885;53.560;9.940;2022-12-29T12:52:26;1.40;;;0.73;;
4672;SDS011;61885;53.560;9.940;2022-12-29T12:55:06;1.00;;;0.70;;
4672;SDS011;61885;53.560;9.940;2022-12-29T12:57:49;1.00;;;0.63;;
4672;SDS011;61885;53.560;9.940;2022-12-29T13:00:28;5.70;;;0.67;;
4672;SDS011;61885;53.560;9.940;2022-12-29T13:03:09;1.00;;;0.60;;
4672;SDS011;61885;53.560;9.940;2022-12-29T13:05:54;5.47;;;1.00;;
4672;SDS011;61885;53.560;9.940;2022-12-29T13:08:41;10.03;;;1.10;;
4672;SDS011;61885;53.560;9.940;2022-12-29T13:11:26;1.00;;;0.70;;
4672;SDS011;61885;53.560;9.940;2022-12-29T13:14:07;4.77;;;0.83;;
4672;SDS011;61885;53.560;9.940;2022-12-29T13:16:49;3.53;;;0.80;;
4672;SDS011;61885;53.560;9.940;2022-12-29T13:19:28;0.90;;;0.70;;
4672;SDS011;61885;53.560;9.940;2022-12-29T13:22:21;1.30;;;0.60;;
4672;SDS011;61885;53.560;9.940;2022-12-29T13:25:00;2.30;;;0.70;;
4672;SDS011;61885;53.560;9.940;2022-12-29T13:27:55;1.33;;;0.70;;
4672;SDS011;61885;53.560;9.940;2022-12-29T13:30:33;5.03;;;0.97;;
4672;SDS011;61885;53.560;9.940;2022-12-29T13:33:16;1.83;;;0.40;;
4672;SDS011;61885;53.560;9.940;2022-12-29T13:35:59;0.87;;;0.70;;
4672;SDS011;61885;53.560;9.940;2022-12-29T13:38:38;4.30;;;0.70;;
4672;SDS011;61885;53.560;9.940;2022-12-29T13:41:13;8.20;;;1.10;;
4672;SDS011;61885;53.560;9.940;2022-12-29T13:43:49;2.40;;;0.70;;
4672;SDS011;61885;53.560;9.940;2022-12-29T13:46:24;2.23;;;0.97;;
4672;SDS011;61885;53.560;9.940;2022-12-29T13:48:58;2.40;;;1.07;;
4672;SDS011;61885;53.560;9.940;2022-12-29T13:51:31;2.80;;;0.80;;
4672;SDS011;61885;53.560;9.940;2022-12-29T13:54:13;4.40;;;0.90;;
4672;SDS011;61885;53.560;9.940;2022-12-29T13:56:54;1.20;;;1.10;;
4672;SDS011;61885;53.560;9.940;2022-12-29T13:59:42;0.90;;;0.67;;
4672;SDS011;61885;53.560;9.940;2022-12-29T14:02:24;1.50;;;1.13;;
4672;SDS011;61885;53.560;9.940;2022-12-29T14:05:27;1.07;;;0.50;;
4672;SDS011;61885;53.560;9.940;2022-12-29T14:07:57;3.43;;;0.63;;
4672;SDS011;61885;53.560;9.940;2022-12-29T14:10:32;3.20;;;0.90;;
4672;SDS011;61885;53.560;9.940;2022-12-29T14:13:16;1.10;;;0.63;;
4672;SDS011;61885;53.560;9.940;2022-12-29T14:15:50;1.50;;;0.60;;
4672;SDS011;61885;53.560;9.940;2022-12-29T14:18:24;0.80;;;0.40;;
4672;SDS011;61885;53.560;9.940;2022-12-29T14:20:57;0.80;;;0.50;;
4672;SDS011;61885;53.560;9.940;2022-12-29T14:23:37;0.90;;;0.40;;
4672;SDS011;61885;53.560;9.940;2022-12-29T14:26:15;1.37;;;0.90;;
4672;SDS011;61885;53.560;9.940;2022-12-29T14:28:48;0.93;;;0.60;;
4672;SDS011;61885;53.560;9.940;2022-12-29T14:31:33;1.43;;;0.40;;
4672;SDS011;61885;53.560;9.940;2022-12-29T14:34:22;2.07;;;0.53;;
4672;SDS011;61885;53.560;9.940;2022-12-29T14:36:59;2.23;;;0.50;;
4672;SDS011;61885;53.560;9.940;2022-12-29T14:39:32;0.77;;;0.43;;
4672;SDS011;61885;53.560;9.940;2022-12-29T14:42:13;0.90;;;0.70;;
4672;SDS011;61885;53.560;9.940;2022-12-29T14:44:49;1.60;;;0.90;;
4672;SDS011;61885;53.560;9.940;2022-12-29T14:47:22;2.00;;;0.67;;
4672;SDS011;61885;53.560;9.940;2022-12-29T14:50:02;1.10;;;0.63;;
4672;SDS011;61885;53.560;9.940;2022-12-29T14:52:43;2.83;;;1.20;;
4672;SDS011;61885;53.560;9.940;2022-12-29T14:55:32;2.13;;;1.20;;
4672;SDS011;61885;53.560;9.940;2022-12-29T14:58:14;2.60;;;0.80;;
4672;SDS011;61885;53.560;9.940;2022-12-29T15:00:47;3.27;;;0.87;;
4672;SDS011;61885;53.560;9.940;2022-12-29T15:03:20;0.90;;;0.63;;
4672;SDS011;61885;53.560;9.940;2022-12-29T15:05:54;1.47;;;0.80;;
4672;SDS011;61885;53.560;9.940;2022-12-29T15:08:28;1.40;;;0.80;;
4672;SDS011;61885;53.560;9.940;2022-12-29T15:11:09;5.20;;;1.10;;
4672;SDS011;61885;53.560;9.940;2022-12-29T15:13:49;4.50;;;0.90;;
4672;SDS011;61885;53.560;9.940;2022-12-29T15:16:22;3.13;;;0.90;;
4672;SDS011;61885;53.560;9.940;2022-12-29T15:18:56;1.00;;;0.80;;
4672;SDS011;61885;53.560;9.940;2022-12-29T15:21:29;0.90;;;0.70;;
4672;SDS011;61885;53.560;9.940;2022-12-29T15:24:01;3.23;;;1.30;;
4672;SDS011;61885;53.560;9.940;2022-12-29T15:26:37;0.90;;;0.60;;
4672;SDS011;61885;53.560;9.940;2022-12-29T15:34:57;1.80;;;1.70;;
4672;SDS011;61885;53.560;9.940;2022-12-29T15:37:32;1.37;;;0.70;;
4672;SDS011;61885;53.560;9.940;2022-12-29T15:40:04;2.50;;;0.93;;
4672;SDS011;61885;53.560;9.940;2022-12-29T15:45:49;3.10;;;1.20;;
4672;SDS011;61885;53.560;9.940;2022-12-29T15:48:20;1.97;;;1.10;;
4672;SDS011;61885;53.560;9.940;2022-12-29T15:50:51;3.87;;;1.10;;
4672;SDS011;61885;53.560;9.940;2022-12-29T15:53:24;1.00;;;0.80;;
4672;SDS011;61885;53.560;9.940;2022-12-29T15:55:59;3.53;;;0.90;;
4672;SDS011;61885;53.560;9.940;2022-12-29T15:58:38;1.40;;;1.30;;
4672;SDS011;61885;53.560;9.940;2022-12-29T16:01:23;2.03;;;1.47;;
4672;SDS011;61885;53.560;9.940;2022-12-29T16:03:57;2.33;;;1.07;;
4672;SDS011;61885;53.560;9.940;2022-12-29T16:06:31;8.87;;;2.43;;
4672;SDS011;61885;53.560;9.940;2022-12-29T16:09:35;3.73;;;1.10;;